sensor_id;sensor_type;location;lat;lon;timestamp;pressure;altitude;pressure_sealevel;temperature
77355;BMP280;66422;51.202;19.936;2024-02-14T00:08:19;99807.55;;;6.01
77355;BMP280;66422;51.202;19.936;2024-02-14T00:23:40;99808.77;;;5.81
77355;BMP280;66422;51.202;19.936;2024-02-14T00:39:00;99823.05;;;5.58
77355;BMP280;66422;51.202;19.936;2024-02-14T00:54:20;99832.51;;;4.97
77355;BMP280;66422;51.202;19.936;2024-02-14T01:09:40;99835.56;;;5.21
77355;BMP280;66422;51.202;19.936;2024-02-14T01:25:00;99835.93;;;5.24
77355;BMP280;66422;51.202;19.936;2024-02-14T01:40:20;99836.30;;;4.81
77355;BMP280;66422;51.202;19.936;2024-02-14T01:55:39;99834.10;;;4.89
77355;BMP280;66422;51.202;19.936;2024-02-14T02:11:00;99840.23;;;4.80
77355;BMP280;66422;51.202;19.936;2024-02-14T02:26:20;99850.09;;;4.60
77355;BMP280;66422;51.202;19.936;2024-02-14T02:41:40;99854.84;;;4.87
77355;BMP280;66422;51.202;19.936;2024-02-14T02:57:00;99860.83;;;4.96
77355;BMP280;66422;51.202;19.936;2024-02-14T03:12:22;99863.14;;;4.67
77355;BMP280;66422;51.202;19.936;2024-02-14T03:27:43;99877.87;;;4.56
77355;BMP280;66422;51.202;19.936;2024-02-14T03:43:06;99888.25;;;4.70
77355;BMP280;66422;51.202;19.936;2024-02-14T03:58:31;99885.45;;;4.43
77355;BMP280;66422;51.202;19.936;2024-02-14T04:13:52;99889.98;;;4.41
77355;BMP280;66422;51.202;19.936;2024-02-14T04:29:12;99900.73;;;4.16
77355;BMP280;66422;51.202;19.936;2024-02-14T04:44:33;99900.98;;;3.26
77355;BMP280;66422;51.202;19.936;2024-02-14T04:59:54;99906.95;;;2.93
77355;BMP280;66422;51.202;19.936;2024-02-14T05:15:15;99911.66;;;2.56
77355;BMP280;66422;51.202;19.936;2024-02-14T05:30:35;99919.78;;;1.52
77355;BMP280;66422;51.202;19.936;2024-02-14T05:45:55;99919.30;;;1.81
77355;BMP280;66422;51.202;19.936;2024-02-14T06:01:15;99931.09;;;1.75
77355;BMP280;66422;51.202;19.936;2024-02-14T06:16:35;99936.02;;;1.73
77355;BMP280;66422;51.202;19.936;2024-02-14T06:31:55;99944.08;;;1.67
77355;BMP280;66422;51.202;19.936;2024-02-14T06:47:15;99954.09;;;1.68
77355;BMP280;66422;51.202;19.936;2024-02-14T07:02:35;99966.21;;;1.92
77355;BMP280;66422;51.202;19.936;2024-02-14T07:17:55;99976.13;;;2.13
77355;BMP280;66422;51.202;19.936;2024-02-14T07:33:15;99976.38;;;2.56
77355;BMP280;66422;51.202;19.936;2024-02-14T07:48:35;99977.38;;;3.45
77355;BMP280;66422;51.202;19.936;2024-02-14T08:03:54;99976.61;;;3.94
77355;BMP280;66422;51.202;19.936;2024-02-14T08:19:14;99972.21;;;4.69
77355;BMP280;66422;51.202;19.936;2024-02-14T08:34:34;99970.70;;;5.40
77355;BMP280;66422;51.202;19.936;2024-02-14T08:49:54;99970.88;;;5.80
77355;BMP280;66422;51.202;19.936;2024-02-14T09:05:14;99975.47;;;6.47
77355;BMP280;66422;51.202;19.936;2024-02-14T09:20:36;99965.34;;;7.16
77355;BMP280;66422;51.202;19.936;2024-02-14T09:35:56;99962.88;;;7.76
77355;BMP280;66422;51.202;19.936;2024-02-14T09:51:16;99969.31;;;7.91
77355;BMP280;66422;51.202;19.936;2024-02-14T10:06:36;99977.35;;;8.31
77355;BMP280;66422;51.202;19.936;2024-02-14T10:21:58;99973.83;;;8.70
77355;BMP280;66422;51.202;19.936;2024-02-14T10:37:21;99964.18;;;8.55
77355;BMP280;66422;51.202;19.936;2024-02-14T10:52:41;99945.86;;;9.17
77355;BMP280;66422;51.202;19.936;2024-02-14T11:08:08;99926.86;;;9.20
77355;BMP280;66422;51.202;19.936;2024-02-14T11:23:30;99932.11;;;9.47
77355;BMP280;66422;51.202;19.936;2024-02-14T11:38:50;99915.66;;;9.23
77355;BMP280;66422;51.202;19.936;2024-02-14T11:54:10;99901.14;;;9.13
77355;BMP280;66422;51.202;19.936;2024-02-14T12:09:29;99885.29;;;9.43
77355;BMP280;66422;51.202;19.936;2024-02-14T12:24:49;99881.70;;;9.63
77355;BMP280;66422;51.202;19.936;2024-02-14T12:40:11;99870.05;;;9.84
77355;BMP280;66422;51.202;19.936;2024-02-14T12:55:31;99868.20;;;9.68
77355;BMP280;66422;51.202;19.936;2024-02-14T13:10:50;99857.46;;;9.92
77355;BMP280;66422;51.202;19.936;2024-02-14T13:26:10;99847.66;;;9.69
77355;BMP280;66422;51.202;19.936;2024-02-14T13:41:30;99840.75;;;9.83
77355;BMP280;66422;51.202;19.936;2024-02-14T13:56:50;99828.96;;;9.67
77355;BMP280;66422;51.202;19.936;2024-02-14T14:12:11;99827.63;;;9.54
77355;BMP280;66422;51.202;19.936;2024-02-14T14:27:30;99825.80;;;9.46
77355;BMP280;66422;51.202;19.936;2024-02-14T14:42:50;99828.64;;;9.48
77355;BMP280;66422;51.202;19.936;2024-02-14T14:58:13;99830.09;;;9.32
77355;BMP280;66422;51.202;19.936;2024-02-14T15:13:33;99827.64;;;9.03
77355;BMP280;66422;51.202;19.936;2024-02-14T15:28:53;99817.90;;;8.32
77355;BMP280;66422;51.202;19.936;2024-02-14T15:44:34;99811.39;;;8.17
77355;BMP280;66422;51.202;19.936;2024-02-14T15:59:53;99799.59;;;7.98
77355;BMP280;66422;51.202;19.936;2024-02-14T16:15:14;99805.31;;;7.57
77355;BMP280;66422;51.202;19.936;2024-02-14T16:30:36;99798.78;;;6.91
77355;BMP280;66422;51.202;19.936;2024-02-14T16:45:56;99812.64;;;6.69
77355;BMP280;66422;51.202;19.936;2024-02-14T17:01:16;99807.10;;;6.35
77355;BMP280;66422;51.202;19.936;2024-02-14T17:16:35;99820.98;;;6.32
77355;BMP280;66422;51.202;19.936;2024-02-14T17:31:55;99846.53;;;6.27
77355;BMP280;66422;51.202;19.936;2024-02-14T17:47:16;99847.33;;;6.54
77355;BMP280;66422;51.202;19.936;2024-02-14T18:02:37;99836.64;;;6.60
77355;BMP280;66422;51.202;19.936;2024-02-14T18:17:57;99849.89;;;6.49
77355;BMP280;66422;51.202;19.936;2024-02-14T18:33:17;99852.81;;;6.13
77355;BMP280;66422;51.202;19.936;2024-02-14T18:48:37;99857.34;;;6.19
77355;BMP280;66422;51.202;19.936;2024-02-14T19:03:58;99862.23;;;6.53
77355;BMP280;66422;51.202;19.936;2024-02-14T19:19:22;99857.77;;;6.60
77355;BMP280;66422;51.202;19.936;2024-02-14T19:34:45;99866.40;;;6.60
77355;BMP280;66422;51.202;19.936;2024-02-14T19:50:05;99853.27;;;6.65
77355;BMP280;66422;51.202;19.936;2024-02-14T20:05:28;99854.13;;;6.58
77355;BMP280;66422;51.202;19.936;2024-02-14T20:20:48;99853.80;;;6.75
77355;BMP280;66422;51.202;19.936;2024-02-14T20:36:08;99849.27;;;6.77
77355;BMP280;66422;51.202;19.936;2024-02-14T20:51:28;99843.71;;;6.70
77355;BMP280;66422;51.202;19.936;2024-02-14T21:06:49;99838.89;;;6.66
77355;BMP280;66422;51.202;19.936;2024-02-14T21:22:09;99833.60;;;6.68
77355;BMP280;66422;51.202;19.936;2024-02-14T21:37:30;99824.31;;;6.62
77355;BMP280;66422;51.202;19.936;2024-02-14T21:52:50;99824.99;;;6.59
77355;BMP280;66422;51.202;19.936;2024-02-14T22:08:10;99810.66;;;6.68
77355;BMP280;66422;51.202;19.936;2024-02-14T22:23:31;99811.60;;;6.82
77355;BMP280;66422;51.202;19.936;2024-02-14T22:38:51;99827.70;;;6.90
77355;BMP280;66422;51.202;19.936;2024-02-14T22:54:11;99827.52;;;6.96
77355;BMP280;66422;51.202;19.936;2024-02-14T23:09:31;99825.14;;;6.77
77355;BMP280;66422;51.202;19.936;2024-02-14T23:24:53;99833.67;;;6.80
77355;BMP280;66422;51.202;19.936;2024-02-14T23:40:12;99832.88;;;6.65
77355;BMP280;66422;51.202;19.936;2024-02-14T23:55:32;99823.37;;;6.72
